Philadelphia Intl Information

FAA: PHL - ICAO: KPHL

Philadelphia Intl (Airport) Location

State Pennsylvania
County Philadelphia
City Philadelphia
Philadelphia Intl (Airport) is 5 miles southwest of Philadelphia, PA.
Latitude 39-52-19.5020N
Longitude 075-14-26.3870W
Elevation 35ft

Philadelphia Intl METARs

METAR KPHL 191154Z 06004KT 10SM SCT006 OVC010 14/13 A2974 RMK RAE09 SLP071 P0000 60036 70046 T01440128 10150 20139 57008
Altimeter 29.74"
Temperature 14.4°C (57.9°F)
Wind 60° at 4KT
Clouds scattered at 600ft overcast at 1,000ft
Visibility 10.0mi
Time observed: 2022-05-19T11:54:00Z

Philadelphia Intl (Airport) Details

Status Operational
Activation October 1940
Ownership Public
Usage Public
Chart WASHINGTON
ATC on-site Yes
Beacon schedule sunset-sunrise
Beacon color clear green

Philadelphia Intl (Airport) Contacts

Owner CITY OF PHILADELPHIA
Owner address DIV OF AVIATION TERMINAL E, PHILADELPHIA, PA 19153
Owner phone 215-937-6800
Manager BARBARA A BOSTON
Manager address MS 300-BROAD & VINE STREETS, PHILADELPHIA, PA 19102
Manager phone (215) 762-8918

Philadelphia Intl Radio Frequencies

Philadelphia Intl (Airport) Radio Frequencies

UNICOM 122.95
Common traffic advisory frequency (CTAF) N/A